createdAt,value
2023-04-05T00:01:20.408Z,79.10
2023-04-05T00:03:49.051Z,79.11
2023-04-05T00:06:17.435Z,79.02
2023-04-05T00:08:50.111Z,79.02
2023-04-05T00:11:18.845Z,78.96
2023-04-05T00:13:47.033Z,79.16
2023-04-05T00:16:16.195Z,79.22
2023-04-05T00:18:51.861Z,79.30
2023-04-05T00:21:22.041Z,79.38
2023-04-05T00:23:51.487Z,79.55
2023-04-05T00:26:20.484Z,79.33
2023-04-05T00:28:49.756Z,79.38
2023-04-05T00:31:18.037Z,79.47
2023-04-05T00:33:46.880Z,79.52
2023-04-05T00:36:16.354Z,79.79
2023-04-05T00:38:45.527Z,79.77
2023-04-05T00:41:14.179Z,80.09
2023-04-05T00:43:42.407Z,80.17
2023-04-05T00:46:13.737Z,80.10
2023-04-05T00:48:42.511Z,80.09
2023-04-05T00:51:11.756Z,80.00
2023-04-05T00:53:43.168Z,80.13
2023-04-05T00:56:13.935Z,80.11
2023-04-05T00:58:52.226Z,80.17
2023-04-05T01:01:22.537Z,80.26
2023-04-05T01:03:56.320Z,80.67
2023-04-05T01:06:25.175Z,80.51
2023-04-05T01:09:00.427Z,80.45
2023-04-05T01:11:29.049Z,80.33
2023-04-05T01:14:00.146Z,80.35
2023-04-05T01:16:28.426Z,80.78
2023-04-05T01:18:58.551Z,80.80
2023-04-05T01:21:39.541Z,80.89
2023-04-05T01:24:10.859Z,81.07
2023-04-05T01:26:39.984Z,81.26
2023-04-05T01:29:22.899Z,81.35
2023-04-05T01:32:02.985Z,81.33
2023-04-05T01:34:52.736Z,81.60
2023-04-05T01:37:24.191Z,82.20
2023-04-05T01:39:56.825Z,82.23
2023-04-05T01:42:28.276Z,82.56
2023-04-05T01:44:59.530Z,82.81
2023-04-05T01:47:29.835Z,82.88
2023-04-05T01:50:00.544Z,82.91
2023-04-05T01:52:30.840Z,82.60
2023-04-05T01:55:01.392Z,82.94
2023-04-05T01:57:33.494Z,82.65
2023-04-05T02:00:06.362Z,82.44
2023-04-05T02:02:43.908Z,82.70
2023-04-05T02:05:15.637Z,82.30
2023-04-05T02:07:48.243Z,82.33
2023-04-05T02:10:19.876Z,82.23
2023-04-05T02:12:50.849Z,82.27
2023-04-05T02:15:24.927Z,81.93
2023-04-05T02:17:56.883Z,81.82
2023-04-05T02:20:29.872Z,81.82
2023-04-05T02:23:00.872Z,81.84
2023-04-05T02:25:31.878Z,81.93
2023-04-05T02:28:11.899Z,81.92
2023-04-05T02:30:42.282Z,81.89
2023-04-05T02:40:32.494Z,82.57
2023-04-05T02:43:02.253Z,82.69
2023-04-05T02:45:31.339Z,82.96
2023-04-05T02:48:00.341Z,82.97
2023-04-05T02:50:31.718Z,83.23
2023-04-05T02:53:03.473Z,83.26
2023-04-05T02:55:34.409Z,83.28
2023-04-05T02:58:03.418Z,83.60
2023-04-05T03:00:51.533Z,83.72
2023-04-05T03:03:23.659Z,84.05
2023-04-05T03:06:00.512Z,84.11
2023-04-05T03:08:32.772Z,84.16
2023-04-05T03:11:07.401Z,84.33
2023-04-05T03:13:38.942Z,84.52
2023-04-05T03:16:13.311Z,84.81
2023-04-05T03:18:42.674Z,85.02
2023-04-05T03:21:18.328Z,85.36
2023-04-05T03:23:54.160Z,85.56
2023-04-05T03:26:26.530Z,85.68
2023-04-05T03:28:55.134Z,85.60
2023-04-05T03:31:30.812Z,85.76
2023-04-05T03:34:03.133Z,85.63
2023-04-05T03:36:44.308Z,85.75
2023-04-05T03:39:21.366Z,85.95
2023-04-05T03:41:49.887Z,85.89
2023-04-05T03:44:19.490Z,85.85
2023-04-05T03:46:47.758Z,85.70
2023-04-05T03:49:16.764Z,85.69
2023-04-05T03:51:46.730Z,85.51
2023-04-05T03:54:15.452Z,85.41
2023-04-05T03:56:44.253Z,85.29
2023-04-05T03:59:19.910Z,85.36
2023-04-05T04:01:50.342Z,85.22
2023-04-05T04:04:21.357Z,84.91
2023-04-05T04:06:51.986Z,84.54
2023-04-05T04:09:25.253Z,84.10
2023-04-05T04:11:53.558Z,83.77
2023-04-05T04:14:25.062Z,83.37
2023-04-05T04:17:13.148Z,82.64
2023-04-05T04:20:15.009Z,81.97
2023-04-05T04:23:02.890Z,81.24
2023-04-05T04:25:54.996Z,80.64
2023-04-05T04:29:03.704Z,80.15
2023-04-05T04:32:02.253Z,79.66
2023-04-05T04:35:00.281Z,78.94
2023-04-05T04:37:47.686Z,78.24
2023-04-05T04:40:29.686Z,77.89
2023-04-05T04:43:17.688Z,77.56
2023-04-05T04:46:11.090Z,76.32
2023-04-05T04:48:58.412Z,76.22
2023-04-05T04:51:39.689Z,75.94
2023-04-05T04:54:08.274Z,75.62
2023-04-05T04:56:37.778Z,74.66
2023-04-05T04:59:06.500Z,74.78
2023-04-05T05:01:40.990Z,74.52
2023-04-05T05:04:11.792Z,73.58
2023-04-05T05:06:42.056Z,72.95
2023-04-05T05:09:12.678Z,72.58
2023-04-05T05:11:52.134Z,72.01
2023-04-05T05:14:20.701Z,71.78
2023-04-05T05:16:49.322Z,71.53
2023-04-05T05:19:20.137Z,71.54
2023-04-05T05:21:54.269Z,70.66
2023-04-05T05:24:25.172Z,69.96
2023-04-05T05:26:53.672Z,69.37
2023-04-05T05:29:22.032Z,68.25
2023-04-05T05:31:51.132Z,67.67
2023-04-05T05:34:19.834Z,67.17
2023-04-05T05:36:52.808Z,66.52
2023-04-05T05:39:21.381Z,66.36
2023-04-05T05:41:50.586Z,66.71
2023-04-05T05:44:19.005Z,66.65
2023-04-05T05:46:47.580Z,66.71
2023-04-05T05:49:16.947Z,66.21
2023-04-05T05:51:46.147Z,65.70
2023-04-05T05:54:14.426Z,65.75
2023-04-05T05:56:42.855Z,66.07
2023-04-05T05:59:12.441Z,66.09
2023-04-05T06:01:43.444Z,65.93
2023-04-05T06:04:11.700Z,65.98
2023-04-05T06:06:43.086Z,66.08
2023-04-05T06:09:11.750Z,65.86
2023-04-05T06:11:53.173Z,65.56
2023-04-05T06:14:25.360Z,64.91
2023-04-05T06:16:53.987Z,64.77
2023-04-05T06:19:22.779Z,65.16
2023-04-05T06:21:51.256Z,65.21
2023-04-05T06:24:19.747Z,65.86
2023-04-05T06:26:48.323Z,66.25
2023-04-05T06:29:19.366Z,66.54
2023-04-05T06:31:48.673Z,66.93
2023-04-05T06:34:17.140Z,67.25
2023-04-05T06:36:48.312Z,67.23
2023-04-05T06:39:19.120Z,67.43
2023-04-05T06:41:47.501Z,67.60
2023-04-05T06:44:16.500Z,67.09
2023-04-05T06:46:45.414Z,66.27
2023-04-05T06:49:13.860Z,65.40
2023-04-05T06:51:42.849Z,64.72
2023-04-05T06:54:15.127Z,64.52
2023-04-05T06:56:44.027Z,64.56
2023-04-05T06:59:13.444Z,64.09
2023-04-05T07:01:42.573Z,63.06
2023-04-05T07:04:13.123Z,62.43
2023-04-05T07:06:41.828Z,62.37
2023-04-05T07:09:10.132Z,62.06
2023-04-05T07:11:40.166Z,61.57
2023-04-05T07:14:09.035Z,60.73
2023-04-05T07:16:40.766Z,60.46
2023-04-05T07:19:09.353Z,60.30
2023-04-05T07:21:38.037Z,60.38
2023-04-05T07:24:07.035Z,60.17
2023-04-05T07:26:36.326Z,61.03
2023-04-05T07:29:04.935Z,61.80
2023-04-05T07:31:34.337Z,62.16
2023-04-05T07:34:03.615Z,62.04
2023-04-05T07:36:32.062Z,61.91
2023-04-05T07:39:00.985Z,61.66
2023-04-05T07:41:32.136Z,61.21
2023-04-05T07:44:05.731Z,60.81
2023-04-05T07:46:35.237Z,60.62
2023-04-05T07:49:03.926Z,60.73
2023-04-05T07:51:36.594Z,61.18
2023-04-05T07:54:07.850Z,61.80
2023-04-05T07:56:40.215Z,61.90
2023-04-05T07:59:09.298Z,62.26
2023-04-05T08:01:37.691Z,62.45
2023-04-05T08:04:06.333Z,62.28
2023-04-05T08:06:34.961Z,62.32
2023-04-05T08:09:06.101Z,62.45
2023-04-05T08:11:35.499Z,62.10
2023-04-05T08:14:03.984Z,62.18
2023-04-05T08:16:34.033Z,61.66
2023-04-05T08:19:02.629Z,60.99
2023-04-05T08:21:31.066Z,61.59
2023-04-05T08:24:01.600Z,61.31
2023-04-05T08:26:30.188Z,60.35
2023-04-05T08:28:58.759Z,60.76
2023-04-05T08:31:27.317Z,60.61
2023-04-05T08:33:57.049Z,60.67
2023-04-05T08:36:27.020Z,60.18
2023-04-05T08:38:55.989Z,59.81
2023-04-05T08:41:24.436Z,59.71
2023-04-05T08:43:52.679Z,59.83
2023-04-05T08:46:21.353Z,59.94
2023-04-05T08:48:50.194Z,59.62
2023-04-05T08:51:19.183Z,59.00
2023-04-05T08:53:47.868Z,59.19
2023-04-05T08:56:17.481Z,59.71
2023-04-05T08:58:50.891Z,60.44
2023-04-05T09:01:19.661Z,61.15
2023-04-05T09:03:50.075Z,61.14
2023-04-05T09:06:18.612Z,60.50
2023-04-05T09:08:47.153Z,59.79
2023-04-05T09:11:15.740Z,59.79
2023-04-05T09:13:44.021Z,60.20
2023-04-05T09:16:16.436Z,60.47
2023-04-05T09:18:45.787Z,60.49
2023-04-05T09:21:14.208Z,60.00
2023-04-05T09:23:51.154Z,59.17
2023-04-05T09:26:20.172Z,59.00
2023-04-05T09:28:49.847Z,58.78
2023-04-05T09:31:33.121Z,59.17
2023-04-05T09:34:05.771Z,59.25
2023-04-05T09:36:34.129Z,59.53
2023-04-05T09:39:06.946Z,60.04
2023-04-05T09:41:35.607Z,60.17
2023-04-05T09:44:04.395Z,60.51
2023-04-05T09:46:34.467Z,60.37
2023-04-05T09:49:04.317Z,59.28
2023-04-05T09:51:36.725Z,59.37
2023-04-05T09:54:09.691Z,58.15
2023-04-05T09:56:38.879Z,57.04
2023-04-05T09:59:11.719Z,56.26
2023-04-05T10:01:43.907Z,56.21
2023-04-05T10:04:13.805Z,56.68
2023-04-05T10:06:43.190Z,56.64
2023-04-05T10:09:15.399Z,56.60
2023-04-05T10:11:44.294Z,56.49
2023-04-05T10:14:13.186Z,55.96
2023-04-05T10:16:49.299Z,55.31
2023-04-05T10:19:21.831Z,55.03
2023-04-05T10:21:50.199Z,55.39
2023-04-05T10:24:23.195Z,55.35
2023-04-05T10:27:01.292Z,55.12
2023-04-05T10:29:33.501Z,55.30
2023-04-05T10:32:07.252Z,55.41
2023-04-05T10:34:43.904Z,55.49
2023-04-05T10:37:26.197Z,55.58
2023-04-05T10:39:57.621Z,55.27
2023-04-05T10:42:35.206Z,53.91
2023-04-05T10:45:09.281Z,53.90
2023-04-05T10:47:39.539Z,51.67
2023-04-05T10:50:08.709Z,51.34
2023-04-05T10:52:38.126Z,50.65
2023-04-05T10:55:06.968Z,49.80
2023-04-05T10:57:37.117Z,49.55
2023-04-05T11:00:05.700Z,49.59
2023-04-05T11:02:34.979Z,49.60
2023-04-05T11:05:05.370Z,49.18
2023-04-05T11:07:44.184Z,49.10
2023-04-05T11:10:17.869Z,48.60
2023-04-05T11:12:54.050Z,48.99
2023-04-05T11:15:25.385Z,49.12
2023-04-05T11:18:04.565Z,49.64
2023-04-05T11:20:52.141Z,49.56
2023-04-05T11:23:25.876Z,49.76
2023-04-05T11:25:55.260Z,49.94
2023-04-05T11:28:29.147Z,49.75
2023-04-05T11:30:59.076Z,49.84
2023-04-05T11:33:37.990Z,49.93
2023-04-05T11:36:07.137Z,49.96
2023-04-05T11:38:35.882Z,49.97
2023-04-05T11:41:11.005Z,49.89
2023-04-05T11:43:39.919Z,49.87
2023-04-05T11:46:08.217Z,49.09
2023-04-05T11:48:37.291Z,48.34
2023-04-05T11:51:07.485Z,48.13
2023-04-05T11:53:36.757Z,46.50
2023-04-05T11:56:10.387Z,45.86
2023-04-05T11:58:39.929Z,45.76
2023-04-05T12:01:09.606Z,45.72
2023-04-05T12:03:43.702Z,46.06
2023-04-05T12:06:12.507Z,45.87
2023-04-05T12:08:42.283Z,46.02
2023-04-05T12:11:16.047Z,46.16
2023-04-05T12:13:45.523Z,46.11
2023-04-05T12:16:14.061Z,46.42
2023-04-05T12:18:44.172Z,46.40
2023-04-05T12:21:13.280Z,46.23
2023-04-05T12:23:41.730Z,46.57
2023-04-05T12:26:10.187Z,46.75
2023-04-05T12:28:54.232Z,46.81
2023-04-05T12:31:35.423Z,46.89
2023-04-05T12:34:03.706Z,47.20
2023-04-05T12:36:33.389Z,47.55
2023-04-05T12:39:06.167Z,48.37
2023-04-05T12:41:35.074Z,48.92
2023-04-05T12:44:07.227Z,50.02
2023-04-05T12:46:39.808Z,50.88
2023-04-05T12:49:12.513Z,51.99
2023-04-05T12:51:46.844Z,52.03
2023-04-05T12:54:23.527Z,52.22
2023-04-05T12:56:54.590Z,53.39
2023-04-05T12:59:23.408Z,53.40
2023-04-05T13:01:51.895Z,53.97
2023-04-05T13:04:20.404Z,54.20
2023-04-05T13:06:50.385Z,53.90
2023-04-05T13:09:19.066Z,54.11
2023-04-05T13:11:47.902Z,54.13
2023-04-05T13:14:16.572Z,54.47
2023-04-05T13:16:45.228Z,54.50
2023-04-05T13:19:13.708Z,54.74
2023-04-05T13:21:43.355Z,54.96
2023-04-05T13:24:12.994Z,54.72
2023-04-05T13:26:41.826Z,54.67
2023-04-05T13:29:10.195Z,54.72
2023-04-05T13:31:38.656Z,55.00
2023-04-05T13:34:07.363Z,55.23
2023-04-05T13:36:35.952Z,55.40
2023-04-05T13:39:07.290Z,55.68
2023-04-05T13:41:35.908Z,55.92
2023-04-05T13:44:06.467Z,56.34
2023-04-05T13:46:37.653Z,56.61
2023-04-05T13:49:06.231Z,56.64
2023-04-05T13:51:37.166Z,56.90
2023-04-05T13:54:06.592Z,57.37
2023-04-05T13:56:37.729Z,57.61
2023-04-05T13:59:06.699Z,57.81
2023-04-05T14:01:35.462Z,57.23
2023-04-05T14:04:04.209Z,57.23
2023-04-05T14:06:33.083Z,57.27
2023-04-05T14:09:01.756Z,57.17
2023-04-05T14:11:32.508Z,57.17
2023-04-05T14:14:01.334Z,59.10
2023-04-05T14:16:30.313Z,60.66
2023-04-05T14:18:59.059Z,61.96
2023-04-05T14:21:27.843Z,63.23
2023-04-05T14:23:58.196Z,64.06
2023-04-05T14:26:27.160Z,64.78
2023-04-05T14:28:55.763Z,65.94
2023-04-05T14:31:26.535Z,66.95
2023-04-05T14:33:55.778Z,67.80
2023-04-05T14:36:24.052Z,68.53
2023-04-05T14:38:56.838Z,69.77
2023-04-05T14:41:27.486Z,71.01
2023-04-05T14:43:57.082Z,72.47
2023-04-05T14:46:25.444Z,73.99
2023-04-05T14:48:54.260Z,75.20
2023-04-05T14:51:22.742Z,76.28
2023-04-05T14:53:51.628Z,76.93
2023-04-05T14:56:24.703Z,77.30
2023-04-05T14:58:53.124Z,77.57
2023-04-05T15:01:21.572Z,77.50
2023-04-05T15:03:52.101Z,77.77
2023-04-05T15:06:22.339Z,77.72
2023-04-05T15:08:51.815Z,77.67
2023-04-05T15:11:20.091Z,77.80
2023-04-05T15:13:49.699Z,78.32
2023-04-05T15:16:18.513Z,78.24
2023-04-05T15:18:51.309Z,78.63
2023-04-05T15:21:20.281Z,78.71
2023-04-05T15:23:48.851Z,78.91
2023-04-05T15:26:17.429Z,79.49
2023-04-05T15:28:46.112Z,80.18
2023-04-05T15:31:15.020Z,81.20
2023-04-05T15:33:43.377Z,81.94
2023-04-05T15:36:13.246Z,82.43
2023-04-05T15:38:42.401Z,83.82
2023-04-05T15:41:10.662Z,85.81
2023-04-05T15:43:39.756Z,87.06
2023-04-05T15:46:09.110Z,87.51
2023-04-05T15:48:38.180Z,88.15
2023-04-05T15:51:07.820Z,88.18
2023-04-05T15:53:36.652Z,88.56
2023-04-05T15:56:05.553Z,89.14
2023-04-05T15:58:33.713Z,89.15
2023-04-05T16:01:02.239Z,89.25
2023-04-05T16:03:32.633Z,89.52
2023-04-05T16:06:01.746Z,90.21
2023-04-05T16:08:33.582Z,90.99
2023-04-05T16:11:02.372Z,91.65
2023-04-05T16:13:32.176Z,92.95
2023-04-05T16:16:02.071Z,93.32
2023-04-05T16:18:32.006Z,93.70
2023-04-05T16:21:05.718Z,94.73
2023-04-05T16:23:34.851Z,95.39
2023-04-05T16:26:05.441Z,95.85
2023-04-05T16:28:34.383Z,96.46
2023-04-05T16:31:03.085Z,97.00
2023-04-05T16:33:32.658Z,97.30
2023-04-05T16:36:03.694Z,97.65
2023-04-05T16:38:32.552Z,97.96
2023-04-05T16:41:01.394Z,98.29
2023-04-05T16:43:31.564Z,99.14
2023-04-05T16:46:00.683Z,99.46
2023-04-05T16:48:31.080Z,99.93
2023-04-05T16:51:00.041Z,100.00
2023-04-05T16:53:31.020Z,100.00
2023-04-05T16:55:59.808Z,100.00
2023-04-05T16:58:30.051Z,100.00
2023-04-05T17:01:00.606Z,100.00
2023-04-05T17:03:31.220Z,100.00
2023-04-05T17:06:02.025Z,100.00
2023-04-05T17:08:31.425Z,100.00
2023-04-05T17:11:00.736Z,100.00
2023-04-05T17:13:29.837Z,100.00
2023-04-05T17:15:58.322Z,100.00
2023-04-05T17:18:27.495Z,100.00
2023-04-05T17:20:57.115Z,100.00
2023-04-05T17:23:26.195Z,100.00
2023-04-05T17:25:54.828Z,100.00
2023-04-05T17:28:23.669Z,100.00
2023-04-05T17:30:54.187Z,100.00
2023-04-05T17:33:27.903Z,100.00
2023-04-05T17:35:58.857Z,100.00
2023-04-05T17:38:28.039Z,100.00
2023-04-05T17:40:58.059Z,100.00
2023-04-05T17:43:27.197Z,100.00
2023-04-05T17:45:55.660Z,100.00
2023-04-05T17:48:24.457Z,100.00
2023-04-05T17:50:53.316Z,100.00
2023-04-05T17:53:23.622Z,100.00
2023-04-05T17:55:52.525Z,100.00
2023-04-05T17:58:22.958Z,100.00
2023-04-05T18:00:53.996Z,100.00
2023-04-05T18:03:23.468Z,100.00
2023-04-05T18:05:55.357Z,100.00
2023-04-05T18:08:27.125Z,100.00
2023-04-05T18:10:56.852Z,100.00
2023-04-05T18:13:26.891Z,99.95
2023-04-05T18:16:00.333Z,99.66
2023-04-05T18:18:30.773Z,99.54
2023-04-05T18:21:02.150Z,99.38
2023-04-05T18:23:31.931Z,99.14
2023-04-05T18:26:04.636Z,98.94
2023-04-05T18:28:34.016Z,99.07
2023-04-05T18:31:03.823Z,98.73
2023-04-05T18:33:33.952Z,98.32
2023-04-05T18:36:03.185Z,98.12
2023-04-05T18:38:32.833Z,98.15
2023-04-05T18:41:02.485Z,98.29
2023-04-05T18:43:32.317Z,97.97
2023-04-05T18:46:02.611Z,97.97
2023-04-05T18:48:32.095Z,97.90
2023-04-05T18:51:01.397Z,97.92
2023-04-05T18:53:32.640Z,97.55
2023-04-05T18:56:01.142Z,97.34
2023-04-05T18:58:30.740Z,97.13
2023-04-05T19:01:04.299Z,97.12
2023-04-05T19:03:33.584Z,96.80
2023-04-05T19:06:02.228Z,96.30
2023-04-05T19:08:31.524Z,96.35
2023-04-05T19:11:00.719Z,96.16
2023-04-05T19:13:29.324Z,96.01
2023-04-05T19:16:00.665Z,95.70
2023-04-05T19:18:30.262Z,95.66
2023-04-05T19:21:00.883Z,95.59
2023-04-05T19:23:30.124Z,95.29
2023-04-05T19:25:58.492Z,95.08
2023-04-05T19:28:29.672Z,94.96
2023-04-05T19:31:00.024Z,94.44
2023-04-05T19:33:31.987Z,94.45
2023-04-05T19:36:02.384Z,94.25
2023-04-05T19:38:31.646Z,93.99
2023-04-05T19:41:03.590Z,93.60
2023-04-05T19:43:34.000Z,93.43
2023-04-05T19:46:03.287Z,93.18
2023-04-05T19:48:32.195Z,93.27
2023-04-05T19:51:03.746Z,93.00
2023-04-05T19:53:50.856Z,92.64
2023-04-05T19:56:21.200Z,92.27
2023-04-05T19:58:50.493Z,92.51
2023-04-05T20:01:36.180Z,92.30
2023-04-05T20:04:12.148Z,92.04
2023-04-05T20:06:42.617Z,92.08
2023-04-05T20:09:13.647Z,92.12
2023-04-05T20:11:42.652Z,92.20
2023-04-05T20:14:11.301Z,92.07
2023-04-05T20:16:40.558Z,92.10
2023-04-05T20:19:10.103Z,91.81
2023-04-05T20:21:40.515Z,91.41
2023-04-05T20:24:09.161Z,91.26
2023-04-05T20:26:37.803Z,91.21
2023-04-05T20:29:07.576Z,91.15
2023-04-05T20:31:39.010Z,90.97
2023-04-05T20:34:15.389Z,90.92
2023-04-05T20:36:45.454Z,90.91
2023-04-05T20:39:14.949Z,90.69
2023-04-05T20:41:43.820Z,90.74
2023-04-05T20:44:16.011Z,90.62
2023-04-05T20:46:45.040Z,90.53
2023-04-05T20:49:13.368Z,90.46
2023-04-05T20:51:43.255Z,90.25
2023-04-05T20:54:12.342Z,90.09
2023-04-05T20:56:43.698Z,90.11
2023-04-05T20:59:12.331Z,90.09
2023-04-05T21:01:42.212Z,89.90
2023-04-05T21:04:10.930Z,89.76
2023-04-05T21:06:39.898Z,89.49
2023-04-05T21:09:08.315Z,89.27
2023-04-05T21:11:38.530Z,89.21
2023-04-05T21:14:07.334Z,89.14
2023-04-05T21:16:35.831Z,88.80
2023-04-05T21:19:03.959Z,88.68
2023-04-05T21:21:32.684Z,88.47
2023-04-05T21:24:01.127Z,88.49
2023-04-05T21:26:29.654Z,88.37
2023-04-05T21:28:59.321Z,88.33
2023-04-05T21:31:27.551Z,88.39
2023-04-05T21:33:55.754Z,88.13
2023-04-05T21:36:26.848Z,88.31
2023-04-05T21:38:55.422Z,88.37
2023-04-05T21:41:23.867Z,88.64
2023-04-05T21:43:53.951Z,88.56
2023-04-05T21:46:22.729Z,88.53
2023-04-05T21:48:50.956Z,88.40
2023-04-05T21:51:19.099Z,88.44
2023-04-05T21:53:48.201Z,88.52
2023-04-05T21:56:20.560Z,88.45
2023-04-05T21:58:49.033Z,88.47
2023-04-05T22:01:17.243Z,88.53
2023-04-05T22:03:46.359Z,88.58
2023-04-05T22:06:15.999Z,88.48
2023-04-05T22:08:44.412Z,88.39
2023-04-05T22:11:12.865Z,88.39
2023-04-05T22:13:41.981Z,88.42
2023-04-05T22:16:10.451Z,88.18
2023-04-05T22:18:38.689Z,87.89
2023-04-05T22:21:07.115Z,88.09
2023-04-05T22:23:35.327Z,87.99
2023-04-05T22:26:03.455Z,87.96
2023-04-05T22:28:31.894Z,87.99
2023-04-05T22:31:00.276Z,87.95
2023-04-05T22:33:29.619Z,87.99
2023-04-05T22:35:57.905Z,88.06
2023-04-05T22:38:27.381Z,88.12
2023-04-05T22:40:56.168Z,88.11
2023-04-05T22:43:24.381Z,88.18
2023-04-05T22:45:52.820Z,88.30
2023-04-05T22:48:21.821Z,88.59
2023-04-05T22:50:50.012Z,88.75
2023-04-05T22:53:19.278Z,88.90
2023-04-05T22:55:47.964Z,88.96
2023-04-05T22:58:17.528Z,88.91
2023-04-05T23:00:46.135Z,88.93
2023-04-05T23:03:19.365Z,88.89
2023-04-05T23:05:49.005Z,88.91
2023-04-05T23:08:17.235Z,89.07
2023-04-05T23:10:45.844Z,89.19
2023-04-05T23:13:15.396Z,89.28
2023-04-05T23:15:44.072Z,89.05
2023-04-05T23:18:13.244Z,89.08
2023-04-05T23:20:41.670Z,89.36
2023-04-05T23:23:09.795Z,89.37
2023-04-05T23:25:40.964Z,89.47
2023-04-05T23:28:09.701Z,89.46
2023-04-05T23:30:39.718Z,89.56
2023-04-05T23:33:08.871Z,89.29
2023-04-05T23:35:41.602Z,89.45
2023-04-05T23:38:09.872Z,89.46
2023-04-05T23:40:38.021Z,89.64
2023-04-05T23:43:06.477Z,89.67
2023-04-05T23:45:34.877Z,89.68
2023-04-05T23:48:05.375Z,90.09
2023-04-05T23:50:33.560Z,90.31
2023-04-05T23:53:03.002Z,90.62
2023-04-05T23:55:32.784Z,90.81
2023-04-05T23:58:01.507Z,91.05
